createdAt,value
2023-01-03T00:00:15.026Z,0.00
2023-01-03T00:01:14.932Z,0.00
2023-01-03T00:02:14.956Z,0.00
2023-01-03T00:03:14.901Z,0.00
2023-01-03T00:04:15.042Z,0.00
2023-01-03T00:05:14.878Z,0.00
2023-01-03T00:06:14.855Z,0.00
2023-01-03T00:07:14.844Z,0.00
2023-01-03T00:08:14.833Z,0.00
2023-01-03T00:09:14.844Z,0.00
2023-01-03T00:10:14.800Z,0.00
2023-01-03T00:11:14.820Z,0.00
2023-01-03T00:12:14.792Z,0.00
2023-01-03T00:13:14.769Z,0.00
2023-01-03T00:14:14.754Z,0.00
2023-01-03T00:15:14.749Z,0.00
2023-01-03T00:16:14.727Z,0.00
2023-01-03T00:17:14.772Z,0.00
2023-01-03T00:18:14.724Z,0.00
2023-01-03T00:19:14.694Z,0.00
2023-01-03T00:20:14.685Z,0.00
2023-01-03T00:21:14.671Z,0.00
2023-01-03T00:22:14.649Z,0.00
2023-01-03T00:23:14.633Z,0.00
2023-01-03T00:24:14.634Z,0.00
2023-01-03T00:25:14.605Z,0.00
2023-01-03T00:26:14.590Z,0.00
2023-01-03T00:27:14.578Z,0.00
2023-01-03T00:28:14.564Z,0.00
2023-01-03T00:29:14.558Z,0.00
2023-01-03T00:30:14.560Z,0.00
2023-01-03T00:31:14.582Z,0.00
2023-01-03T00:32:14.513Z,0.00
2023-01-03T00:33:14.500Z,0.00
2023-01-03T00:34:14.515Z,0.00
2023-01-03T00:35:14.486Z,0.00
2023-01-03T00:36:14.458Z,0.00
2023-01-03T00:37:14.453Z,0.00
2023-01-03T00:38:14.433Z,0.00
2023-01-03T00:39:14.429Z,0.00
2023-01-03T00:40:14.408Z,0.00
2023-01-03T00:41:14.402Z,0.00
2023-01-03T00:42:14.386Z,0.00
2023-01-03T00:43:14.368Z,0.00
2023-01-03T00:44:14.368Z,0.00
2023-01-03T00:45:19.221Z,0.00
2023-01-03T00:46:14.455Z,0.00
2023-01-03T00:47:14.316Z,0.00
2023-01-03T00:48:14.299Z,0.00
2023-01-03T00:49:14.287Z,0.00
2023-01-03T00:50:14.305Z,0.00
2023-01-03T00:51:14.261Z,0.00
2023-01-03T00:52:14.251Z,0.00
2023-01-03T00:53:14.234Z,0.00
2023-01-03T00:54:14.229Z,0.00
2023-01-03T00:55:14.215Z,0.00
2023-01-03T00:56:14.195Z,0.00
2023-01-03T00:57:14.188Z,0.00
2023-01-03T00:58:14.168Z,0.00
2023-01-03T00:59:14.218Z,0.00
2023-01-03T01:00:14.242Z,0.00
2023-01-03T01:01:14.286Z,0.00
2023-01-03T01:02:14.267Z,0.00
2023-01-03T01:03:14.324Z,0.00
2023-01-03T01:04:14.084Z,0.00
2023-01-03T01:05:14.082Z,0.00
2023-01-03T01:06:14.183Z,0.00
2023-01-03T01:07:14.059Z,0.00
2023-01-03T01:08:14.037Z,0.00
2023-01-03T01:09:14.018Z,0.00
2023-01-03T01:10:14.004Z,0.00
2023-01-03T01:11:13.995Z,0.00
2023-01-03T01:12:13.984Z,0.00
2023-01-03T01:13:13.971Z,0.00
2023-01-03T01:14:13.953Z,0.00
2023-01-03T01:15:13.941Z,0.00
2023-01-03T01:16:13.994Z,0.00
2023-01-03T01:17:19.184Z,0.00
2023-01-03T01:18:14.930Z,0.00
2023-01-03T01:19:13.893Z,0.00
2023-01-03T01:20:13.884Z,0.00
2023-01-03T01:21:13.864Z,0.00
2023-01-03T01:22:13.890Z,0.00
2023-01-03T01:23:13.844Z,0.00
2023-01-03T01:24:17.705Z,0.00
2023-01-03T01:25:13.809Z,0.00
2023-01-03T01:26:13.793Z,0.00
2023-01-03T01:27:13.779Z,0.00
2023-01-03T01:28:13.767Z,0.00
2023-01-03T01:29:13.757Z,0.00
2023-01-03T01:30:13.743Z,0.00
2023-01-03T01:31:13.827Z,0.00
2023-01-03T01:32:13.715Z,0.00
2023-01-03T01:33:13.709Z,0.00
2023-01-03T01:34:13.690Z,0.00
2023-01-03T01:35:13.678Z,0.00
2023-01-03T01:36:13.688Z,0.00
2023-01-03T01:37:13.648Z,0.00
2023-01-03T01:38:13.659Z,0.00
2023-01-03T01:39:13.621Z,0.00
2023-01-03T01:40:13.682Z,0.00
2023-01-03T01:41:13.600Z,0.00
2023-01-03T01:42:19.020Z,0.00
2023-01-03T01:43:14.599Z,0.00
2023-01-03T01:44:13.607Z,0.00
2023-01-03T01:45:13.572Z,0.00
2023-01-03T01:46:13.659Z,0.00
2023-01-03T01:47:13.524Z,0.00
2023-01-03T01:48:13.506Z,0.00
2023-01-03T01:49:13.495Z,0.00
2023-01-03T01:50:13.483Z,0.00
2023-01-03T01:51:13.464Z,0.00
2023-01-03T01:52:13.447Z,0.00
2023-01-03T01:53:13.442Z,0.00
2023-01-03T01:54:13.444Z,0.00
2023-01-03T01:55:13.409Z,0.00
2023-01-03T01:56:13.396Z,0.00
2023-01-03T01:57:13.388Z,0.00
2023-01-03T01:58:13.384Z,0.00
2023-01-03T01:59:13.369Z,0.00
2023-01-03T02:00:13.351Z,0.00
2023-01-03T02:01:13.508Z,0.00
2023-01-03T02:02:13.469Z,0.00
2023-01-03T02:03:13.451Z,0.00
2023-01-03T02:04:13.299Z,0.00
2023-01-03T02:05:13.282Z,0.00
2023-01-03T02:06:13.264Z,0.00
2023-01-03T02:07:13.257Z,0.00
2023-01-03T02:08:13.252Z,0.00
2023-01-03T02:09:13.229Z,0.00
2023-01-03T02:10:13.235Z,0.00
2023-01-03T02:11:13.194Z,0.00
2023-01-03T02:12:13.184Z,0.00
2023-01-03T02:13:13.174Z,0.00
2023-01-03T02:14:13.162Z,0.00
2023-01-03T02:15:13.145Z,0.00
2023-01-03T02:16:13.275Z,0.00
2023-01-03T02:17:13.127Z,0.00
2023-01-03T02:18:13.115Z,0.00
2023-01-03T02:19:13.096Z,0.00
2023-01-03T02:20:13.083Z,0.00
2023-01-03T02:21:18.257Z,0.00
2023-01-03T02:22:14.076Z,0.00
2023-01-03T02:23:13.034Z,0.00
2023-01-03T02:24:13.032Z,0.00
2023-01-03T02:25:13.010Z,0.00
2023-01-03T02:26:13.024Z,0.00
2023-01-03T02:27:12.984Z,0.00
2023-01-03T02:28:12.970Z,0.00
2023-01-03T02:29:12.960Z,0.00
2023-01-03T02:30:12.955Z,0.00
2023-01-03T02:31:13.002Z,0.00
2023-01-03T02:32:12.925Z,0.00
2023-01-03T02:33:12.909Z,0.00
2023-01-03T02:34:12.900Z,0.00
2023-01-03T02:35:12.876Z,0.00
2023-01-03T02:36:12.881Z,0.00
2023-01-03T02:37:12.847Z,0.00
2023-01-03T02:38:12.835Z,0.00
2023-01-03T02:39:12.835Z,0.00
2023-01-03T02:40:12.826Z,0.00
2023-01-03T02:41:12.800Z,0.00
2023-01-03T02:42:12.827Z,0.00
2023-01-03T02:43:12.779Z,0.00
2023-01-03T02:44:12.761Z,0.00
2023-01-03T02:45:12.743Z,0.00
2023-01-03T02:46:12.812Z,0.00
2023-01-03T02:47:12.711Z,0.00
2023-01-03T02:48:12.707Z,0.00
2023-01-03T02:49:12.693Z,0.00
2023-01-03T02:50:12.678Z,0.00
2023-01-03T02:51:12.668Z,0.00
2023-01-03T02:52:12.655Z,0.00
2023-01-03T02:53:12.644Z,0.00
2023-01-03T02:54:12.627Z,0.00
2023-01-03T02:55:12.617Z,0.00
2023-01-03T02:56:12.602Z,0.00
2023-01-03T02:57:12.591Z,0.00
2023-01-03T02:58:12.626Z,0.00
2023-01-03T02:59:12.560Z,0.00
2023-01-03T03:00:12.561Z,0.00
2023-01-03T03:01:12.609Z,0.00
2023-01-03T03:02:12.641Z,0.00
2023-01-03T03:03:12.885Z,0.00
2023-01-03T03:04:12.491Z,0.00
2023-01-03T03:05:12.509Z,0.00
2023-01-03T03:06:12.474Z,0.00
2023-01-03T03:07:12.447Z,0.00
2023-01-03T03:08:12.434Z,0.00
2023-01-03T03:09:12.443Z,0.00
2023-01-03T03:10:12.414Z,0.00
2023-01-03T03:11:12.398Z,0.00
2023-01-03T03:12:12.398Z,0.00
2023-01-03T03:13:12.367Z,0.00
2023-01-03T03:14:12.376Z,0.00
2023-01-03T03:15:12.350Z,0.00
2023-01-03T03:16:12.463Z,0.00
2023-01-03T03:17:12.327Z,0.00
2023-01-03T03:18:12.336Z,0.00
2023-01-03T03:19:12.293Z,0.00
2023-01-03T03:20:12.295Z,0.00
2023-01-03T03:21:12.287Z,0.00
2023-01-03T03:22:12.263Z,0.00
2023-01-03T03:23:12.292Z,0.00
2023-01-03T03:24:12.238Z,0.00
2023-01-03T03:25:12.207Z,0.00
2023-01-03T03:26:12.196Z,0.00
2023-01-03T03:27:12.183Z,0.00
2023-01-03T03:28:12.171Z,0.00
2023-01-03T03:29:12.160Z,0.00
2023-01-03T03:30:12.175Z,0.00
2023-01-03T03:31:12.184Z,0.00
2023-01-03T03:32:12.121Z,0.00
2023-01-03T03:33:12.119Z,0.00
2023-01-03T03:34:12.091Z,0.00
2023-01-03T03:35:12.101Z,0.00
2023-01-03T03:36:12.072Z,0.00
2023-01-03T03:37:12.051Z,0.00
2023-01-03T03:38:12.039Z,0.00
2023-01-03T03:39:12.027Z,0.00
2023-01-03T03:40:12.016Z,0.00
2023-01-03T03:41:12.005Z,0.00
2023-01-03T03:42:11.987Z,0.00
2023-01-03T03:43:11.978Z,0.00
2023-01-03T03:44:11.962Z,0.00
2023-01-03T03:45:11.945Z,0.00
2023-01-03T03:46:12.083Z,0.00
2023-01-03T03:47:11.957Z,0.00
2023-01-03T03:48:11.910Z,0.00
2023-01-03T03:49:11.898Z,0.00
2023-01-03T03:50:11.891Z,0.00
2023-01-03T03:51:11.869Z,0.00
2023-01-03T03:52:11.871Z,0.00
2023-01-03T03:53:11.843Z,0.00
2023-01-03T03:54:11.832Z,0.00
2023-01-03T03:55:11.819Z,0.00
2023-01-03T03:56:11.817Z,0.00
2023-01-03T03:57:11.789Z,0.00
2023-01-03T03:58:11.773Z,0.00
2023-01-03T03:59:11.762Z,0.00
2023-01-03T04:00:11.745Z,0.00
2023-01-03T04:01:11.824Z,0.00
2023-01-03T04:02:11.874Z,0.00
2023-01-03T04:03:11.961Z,0.00
2023-01-03T04:04:11.696Z,0.00
2023-01-03T04:05:11.681Z,0.00
2023-01-03T04:06:11.672Z,0.00
2023-01-03T04:07:11.659Z,0.00
2023-01-03T04:08:11.638Z,0.00
2023-01-03T04:09:11.633Z,0.00
2023-01-03T04:10:11.616Z,0.00
2023-01-03T04:11:11.603Z,0.00
2023-01-03T04:12:11.596Z,0.00
2023-01-03T04:13:11.572Z,0.00
2023-01-03T04:14:11.557Z,0.00
2023-01-03T04:15:11.545Z,0.00
2023-01-03T04:16:11.582Z,0.00
2023-01-03T04:17:11.531Z,0.00
2023-01-03T04:18:11.539Z,0.00
2023-01-03T04:19:11.496Z,0.00
2023-01-03T04:20:11.483Z,0.00
2023-01-03T04:21:15.682Z,0.00
2023-01-03T04:22:12.478Z,0.00
2023-01-03T04:23:11.440Z,0.00
2023-01-03T04:24:11.424Z,0.00
2023-01-03T04:25:11.415Z,0.00
2023-01-03T04:26:11.400Z,0.00
2023-01-03T04:27:11.395Z,0.00
2023-01-03T04:28:11.373Z,0.00
2023-01-03T04:29:11.370Z,0.00
2023-01-03T04:30:11.383Z,0.00
2023-01-03T04:31:11.451Z,0.00
2023-01-03T04:32:11.424Z,0.00
2023-01-03T04:33:11.311Z,0.00
2023-01-03T04:34:11.334Z,0.00
2023-01-03T04:35:11.280Z,0.00
2023-01-03T04:36:11.268Z,0.00
2023-01-03T04:37:11.253Z,0.00
2023-01-03T04:38:11.237Z,0.00
2023-01-03T04:39:11.229Z,0.00
2023-01-03T04:40:11.224Z,0.00
2023-01-03T04:41:11.203Z,0.00
2023-01-03T04:42:11.185Z,0.00
2023-01-03T04:43:11.177Z,0.00
2023-01-03T04:44:11.161Z,0.00
2023-01-03T04:45:11.158Z,0.00
2023-01-03T04:46:11.257Z,0.00
2023-01-03T04:47:11.121Z,0.00
2023-01-03T04:48:11.108Z,0.00
2023-01-03T04:49:11.092Z,0.00
2023-01-03T04:50:11.101Z,0.00
2023-01-03T04:51:11.067Z,0.00
2023-01-03T04:52:11.051Z,0.00
2023-01-03T04:53:11.042Z,0.00
2023-01-03T04:54:11.029Z,0.00
2023-01-03T04:55:11.016Z,0.00
2023-01-03T04:56:10.999Z,0.00
2023-01-03T04:57:10.993Z,0.00
2023-01-03T04:58:10.975Z,0.00
2023-01-03T04:59:10.967Z,0.00
2023-01-03T05:00:10.947Z,0.00
2023-01-03T05:01:11.087Z,0.00
2023-01-03T05:02:11.053Z,0.00
2023-01-03T05:03:10.903Z,0.00
2023-01-03T05:04:10.953Z,0.00
2023-01-03T05:05:10.887Z,0.00
2023-01-03T05:06:10.897Z,0.00
2023-01-03T05:07:10.870Z,0.00
2023-01-03T05:08:10.839Z,0.00
2023-01-03T05:09:10.827Z,0.00
2023-01-03T05:10:10.813Z,0.00
2023-01-03T05:11:10.799Z,0.00
2023-01-03T05:12:10.784Z,0.00
2023-01-03T05:13:10.772Z,0.00
2023-01-03T05:14:14.535Z,0.00
2023-01-03T05:15:10.749Z,0.00
2023-01-03T05:16:10.783Z,0.00
2023-01-03T05:17:10.717Z,0.00
2023-01-03T05:18:10.704Z,0.00
2023-01-03T05:19:10.719Z,0.00
2023-01-03T05:20:10.678Z,0.00
2023-01-03T05:21:10.671Z,0.00
2023-01-03T05:22:10.679Z,0.00
2023-01-03T05:23:10.658Z,0.00
2023-01-03T05:24:10.624Z,0.00
2023-01-03T05:25:10.607Z,0.00
2023-01-03T05:26:10.596Z,0.00
2023-01-03T05:27:10.587Z,0.00
2023-01-03T05:28:15.379Z,0.00
2023-01-03T05:29:11.585Z,0.00
2023-01-03T05:30:10.564Z,0.00
2023-01-03T05:31:10.535Z,0.00
2023-01-03T05:32:10.610Z,0.00
2023-01-03T05:33:10.519Z,0.00
2023-01-03T05:34:10.490Z,0.00
2023-01-03T05:35:10.483Z,0.00
2023-01-03T05:36:10.493Z,0.00
2023-01-03T05:37:10.467Z,0.00
2023-01-03T05:38:10.458Z,0.00
2023-01-03T05:39:10.440Z,0.00
2023-01-03T05:40:10.411Z,0.00
2023-01-03T05:41:10.401Z,0.00
2023-01-03T05:42:10.378Z,0.00
2023-01-03T05:43:10.366Z,0.00
2023-01-03T05:44:10.352Z,0.00
2023-01-03T05:45:10.343Z,0.00
2023-01-03T05:46:10.394Z,0.00
2023-01-03T05:47:10.318Z,0.00
2023-01-03T05:48:10.312Z,0.00
2023-01-03T05:49:10.296Z,0.00
2023-01-03T05:50:10.284Z,0.00
2023-01-03T05:51:10.264Z,0.00
2023-01-03T05:52:10.248Z,0.00
2023-01-03T05:53:10.247Z,0.00
2023-01-03T05:54:10.246Z,0.00
2023-01-03T05:55:10.221Z,0.00
2023-01-03T05:56:10.192Z,0.00
2023-01-03T05:57:10.181Z,0.00
2023-01-03T05:58:10.167Z,0.00
2023-01-03T05:59:10.174Z,0.00
2023-01-03T06:00:10.154Z,0.00
2023-01-03T06:01:10.169Z,0.00
2023-01-03T06:02:10.259Z,0.00
2023-01-03T06:03:10.353Z,0.00
2023-01-03T06:04:10.143Z,0.00
2023-01-03T06:05:10.074Z,0.00
2023-01-03T06:06:10.056Z,0.00
2023-01-03T06:07:10.048Z,0.00
2023-01-03T06:08:10.032Z,0.00
2023-01-03T06:09:10.024Z,0.00
2023-01-03T06:10:10.132Z,0.00
2023-01-03T06:11:10.016Z,0.00
2023-01-03T06:12:09.973Z,0.00
2023-01-03T06:13:09.968Z,0.00
2023-01-03T06:14:09.963Z,0.00
2023-01-03T06:15:09.951Z,0.00
2023-01-03T06:16:10.007Z,0.00
2023-01-03T06:17:09.998Z,0.00
2023-01-03T06:18:09.903Z,0.00
2023-01-03T06:19:09.908Z,0.00
2023-01-03T06:20:09.874Z,0.00
2023-01-03T06:21:09.858Z,0.00
2023-01-03T06:22:11.124Z,0.00
2023-01-03T06:23:09.861Z,0.00
2023-01-03T06:24:09.831Z,0.00
2023-01-03T06:25:09.803Z,0.00
2023-01-03T06:26:09.836Z,0.00
2023-01-03T06:27:09.780Z,0.00
2023-01-03T06:28:09.771Z,0.00
2023-01-03T06:29:09.753Z,0.00
2023-01-03T06:30:09.752Z,0.00
2023-01-03T06:31:09.829Z,0.00
2023-01-03T06:32:10.227Z,0.00
2023-01-03T06:33:09.708Z,0.00
2023-01-03T06:34:09.691Z,0.00
2023-01-03T06:35:09.732Z,0.00
2023-01-03T06:36:09.663Z,0.00
2023-01-03T06:37:09.655Z,0.00
2023-01-03T06:38:09.635Z,0.00
2023-01-03T06:39:09.672Z,0.00
2023-01-03T06:40:09.612Z,0.00
2023-01-03T06:41:09.612Z,0.00
2023-01-03T06:42:09.725Z,0.00
2023-01-03T06:43:09.563Z,0.00
2023-01-03T06:44:09.552Z,0.00
2023-01-03T06:45:09.559Z,4.00
2023-01-03T06:46:09.605Z,4.00
2023-01-03T06:47:09.523Z,4.00
2023-01-03T06:48:09.518Z,4.00
2023-01-03T06:49:09.483Z,4.00
2023-01-03T06:50:09.475Z,8.00
2023-01-03T06:51:09.478Z,4.00
2023-01-03T06:52:09.471Z,4.00
2023-01-03T06:53:09.431Z,8.00
2023-01-03T06:54:09.420Z,12.00
2023-01-03T06:55:09.404Z,12.00
2023-01-03T06:56:09.394Z,12.00
2023-01-03T06:57:09.374Z,16.00
2023-01-03T06:58:10.408Z,16.00
2023-01-03T06:59:09.357Z,24.00
2023-01-03T07:00:09.369Z,24.00
2023-01-03T07:01:09.449Z,28.00
2023-01-03T07:02:09.478Z,32.00
2023-01-03T07:03:11.753Z,36.00
2023-01-03T07:04:09.318Z,40.00
2023-01-03T07:05:09.272Z,48.00
2023-01-03T07:06:09.264Z,56.00
2023-01-03T07:07:09.245Z,60.00
2023-01-03T07:08:09.253Z,68.00
2023-01-03T07:09:09.224Z,76.00
2023-01-03T07:10:09.206Z,84.00
2023-01-03T07:11:09.192Z,96.00
2023-01-03T07:12:09.179Z,104.00
2023-01-03T07:13:09.173Z,112.00
2023-01-03T07:14:09.178Z,124.00
2023-01-03T07:15:09.144Z,132.00
2023-01-03T07:16:09.215Z,140.00
2023-01-03T07:17:09.119Z,152.00
2023-01-03T07:18:09.102Z,164.00
2023-01-03T07:19:09.087Z,176.00
2023-01-03T07:20:09.084Z,184.00
2023-01-03T07:21:09.062Z,196.00
2023-01-03T07:22:09.047Z,212.00
2023-01-03T07:23:09.032Z,224.00
2023-01-03T07:24:09.019Z,240.00
2023-01-03T07:25:09.003Z,256.00
2023-01-03T07:26:08.993Z,276.00
2023-01-03T07:27:09.175Z,300.00
2023-01-03T07:28:10.808Z,328.00
2023-01-03T07:29:08.955Z,364.00
2023-01-03T07:30:08.981Z,388.00
2023-01-03T07:31:09.042Z,416.00
2023-01-03T07:32:08.911Z,444.00
2023-01-03T07:33:08.897Z,476.00
2023-01-03T07:34:08.885Z,508.00
2023-01-03T07:35:08.871Z,548.00
2023-01-03T07:36:11.850Z,604.00
2023-01-03T07:37:08.846Z,660.00
2023-01-03T07:38:08.841Z,720.00
2023-01-03T07:39:08.831Z,768.00
2023-01-03T07:40:08.803Z,812.00
2023-01-03T07:41:08.784Z,852.00
2023-01-03T07:42:08.775Z,888.00
2023-01-03T07:43:08.758Z,920.00
2023-01-03T07:44:08.746Z,952.00
2023-01-03T07:45:08.732Z,992.00
2023-01-03T07:46:08.886Z,1036.00
2023-01-03T07:47:08.703Z,1084.00
2023-01-03T07:48:08.693Z,1140.00
2023-01-03T07:49:11.929Z,1208.00
2023-01-03T07:50:08.665Z,1276.00
2023-01-03T07:51:08.651Z,1336.00
2023-01-03T07:52:08.638Z,1400.00
2023-01-03T07:53:08.627Z,1456.00
2023-01-03T07:54:08.611Z,1520.00
2023-01-03T07:55:08.596Z,1580.00
2023-01-03T07:56:12.947Z,1632.00
2023-01-03T07:57:08.570Z,1684.00
2023-01-03T07:58:08.555Z,1732.00
2023-01-03T07:59:08.547Z,1784.00
2023-01-03T08:00:08.530Z,1848.00
2023-01-03T08:01:08.719Z,1920.00
2023-01-03T08:02:08.656Z,1992.00
2023-01-03T08:03:11.204Z,2068.00
2023-01-03T08:04:08.490Z,2112.00
2023-01-03T08:05:08.528Z,2144.00
2023-01-03T08:06:08.442Z,2160.00
2023-01-03T08:07:08.431Z,2176.00
2023-01-03T08:08:08.421Z,2160.00
2023-01-03T08:09:08.416Z,2160.00
2023-01-03T08:10:08.403Z,2172.00
2023-01-03T08:11:08.379Z,2184.00
2023-01-03T08:12:08.388Z,2192.00
2023-01-03T08:13:08.358Z,2204.00
2023-01-03T08:14:08.362Z,2212.00
2023-01-03T08:15:08.329Z,2248.00
2023-01-03T08:16:08.373Z,2276.00
2023-01-03T08:17:08.322Z,2300.00
2023-01-03T08:18:08.320Z,2380.00
2023-01-03T08:19:08.277Z,2428.00
2023-01-03T08:20:08.270Z,2396.00
2023-01-03T08:21:08.246Z,2384.00
2023-01-03T08:22:08.248Z,2408.00
2023-01-03T08:23:08.221Z,2404.00
2023-01-03T08:24:08.228Z,2540.00
2023-01-03T08:25:08.189Z,2600.00
2023-01-03T08:26:08.181Z,2676.00
2023-01-03T08:27:08.170Z,2700.00
2023-01-03T08:28:08.151Z,2768.00
2023-01-03T08:29:08.173Z,2900.00
2023-01-03T08:30:08.139Z,2992.00
2023-01-03T08:31:08.210Z,3188.00
2023-01-03T08:32:08.107Z,3240.00
2023-01-03T08:33:08.085Z,3184.00
2023-01-03T08:34:15.823Z,3152.00
2023-01-03T08:35:09.081Z,3128.00
2023-01-03T08:36:08.062Z,3104.00
2023-01-03T08:37:08.056Z,3112.00
2023-01-03T08:38:08.026Z,3148.00
2023-01-03T08:39:08.026Z,3184.00
2023-01-03T08:40:07.999Z,3232.00
2023-01-03T08:41:07.987Z,3284.00
2023-01-03T08:42:08.004Z,3352.00
2023-01-03T08:43:07.956Z,3424.00
2023-01-03T08:44:07.946Z,3500.00
2023-01-03T08:45:07.924Z,3604.00
2023-01-03T08:46:07.994Z,3716.00
2023-01-03T08:47:08.637Z,3832.00
2023-01-03T08:48:07.884Z,3928.00
2023-01-03T08:49:07.872Z,4000.00
2023-01-03T08:50:07.889Z,4072.00
2023-01-03T08:51:07.851Z,4144.00
2023-01-03T08:52:07.840Z,4216.00
2023-01-03T08:53:07.824Z,4264.00
2023-01-03T08:54:07.808Z,4272.00
2023-01-03T08:55:07.799Z,4276.00
2023-01-03T08:56:07.786Z,4272.00
2023-01-03T08:57:07.769Z,4268.00
2023-01-03T08:58:07.757Z,4288.00
2023-01-03T08:59:07.746Z,4320.00
2023-01-03T09:00:07.734Z,4360.00
2023-01-03T09:01:07.778Z,4372.00
2023-01-03T09:02:08.045Z,4392.00
2023-01-03T09:03:07.909Z,4412.00
2023-01-03T09:04:07.787Z,4424.00
2023-01-03T09:05:07.672Z,4416.00
2023-01-03T09:06:07.677Z,4412.00
2023-01-03T09:07:07.635Z,4400.00
2023-01-03T09:08:07.624Z,4384.00
2023-01-03T09:09:07.604Z,4360.00
2023-01-03T09:10:07.592Z,4368.00
2023-01-03T09:11:07.575Z,4384.00
2023-01-03T09:12:07.564Z,4408.00
2023-01-03T09:13:07.548Z,4416.00
2023-01-03T09:14:07.535Z,4404.00
2023-01-03T09:15:07.523Z,4396.00
2023-01-03T09:16:07.586Z,4416.00
2023-01-03T09:17:07.504Z,4440.00
2023-01-03T09:18:07.487Z,4460.00
2023-01-03T09:19:07.471Z,4488.00
2023-01-03T09:20:07.460Z,4496.00
2023-01-03T09:21:07.449Z,4480.00
2023-01-03T09:22:07.461Z,4448.00
2023-01-03T09:23:07.420Z,4452.00
2023-01-03T09:24:07.417Z,4524.00
2023-01-03T09:25:07.389Z,4652.00
2023-01-03T09:26:07.379Z,4808.00
2023-01-03T09:27:07.371Z,4956.00
2023-01-03T09:28:07.358Z,5072.00
2023-01-03T09:29:07.360Z,5168.00
2023-01-03T09:30:07.330Z,5260.00
2023-01-03T09:31:07.326Z,5388.00
2023-01-03T09:32:07.339Z,5536.00
2023-01-03T09:33:07.289Z,5708.00
2023-01-03T09:34:07.288Z,5860.00
2023-01-03T09:35:07.265Z,6004.00
2023-01-03T09:36:07.253Z,6120.00
2023-01-03T09:37:07.236Z,6200.00
2023-01-03T09:38:07.240Z,6260.00
2023-01-03T09:39:07.213Z,6280.00
2023-01-03T09:40:07.190Z,6292.00
2023-01-03T09:41:07.183Z,6300.00
2023-01-03T09:42:07.165Z,6300.00
2023-01-03T09:43:07.156Z,6288.00
2023-01-03T09:44:07.145Z,6316.00
2023-01-03T09:45:07.132Z,6372.00
2023-01-03T09:46:07.125Z,6424.00
2023-01-03T09:47:07.205Z,6500.00
2023-01-03T09:48:07.096Z,6608.00
2023-01-03T09:49:07.086Z,6684.00
2023-01-03T09:51:29.246Z,6840.00
2023-01-03T09:52:08.052Z,6960.00
2023-01-03T09:53:07.015Z,7060.00
2023-01-03T09:54:07.035Z,7092.00
2023-01-03T09:55:06.989Z,7088.00
2023-01-03T09:56:06.983Z,7096.00
2023-01-03T09:57:06.968Z,7104.00
2023-01-03T09:58:06.971Z,7128.00
2023-01-03T09:59:06.937Z,7148.00
2023-01-03T10:00:06.931Z,7152.00
2023-01-03T10:01:07.101Z,7212.00
2023-01-03T10:02:07.176Z,7320.00
2023-01-03T10:03:07.014Z,7444.00
2023-01-03T10:04:06.886Z,7516.00
2023-01-03T10:05:06.873Z,7448.00
2023-01-03T10:06:06.851Z,7336.00
2023-01-03T10:07:06.830Z,7236.00
2023-01-03T10:08:06.843Z,7156.00
2023-01-03T10:09:06.808Z,7072.00
2023-01-03T10:10:13.930Z,7128.00
2023-01-03T10:11:07.800Z,7160.00
2023-01-03T10:12:06.763Z,7156.00
2023-01-03T10:13:06.757Z,7096.00
2023-01-03T10:14:06.735Z,6996.00
2023-01-03T10:15:06.722Z,6904.00
2023-01-03T10:16:06.808Z,6856.00
2023-01-03T10:17:06.757Z,6804.00
2023-01-03T10:18:06.684Z,6752.00
2023-01-03T10:19:06.665Z,6712.00
2023-01-03T10:20:06.684Z,6684.00
2023-01-03T10:21:06.645Z,6600.00
2023-01-03T10:22:06.636Z,6476.00
2023-01-03T10:23:06.616Z,6348.00
2023-01-03T10:24:06.607Z,6204.00
2023-01-03T10:25:06.589Z,6124.00
2023-01-03T10:26:06.602Z,6036.00
2023-01-03T10:27:06.566Z,5956.00
2023-01-03T10:28:06.551Z,5928.00
2023-01-03T10:29:06.552Z,5920.00
2023-01-03T10:30:06.541Z,5880.00
2023-01-03T10:31:08.283Z,5836.00
2023-01-03T10:32:06.596Z,5688.00
2023-01-03T10:33:06.479Z,5636.00
2023-01-03T10:34:06.474Z,5484.00
2023-01-03T10:35:06.448Z,5392.00
2023-01-03T10:36:06.448Z,5312.00
2023-01-03T10:37:06.438Z,5236.00
2023-01-03T10:38:06.416Z,5164.00
2023-01-03T10:39:06.401Z,5008.00
2023-01-03T10:40:06.389Z,4876.00
2023-01-03T10:41:06.381Z,4792.00
2023-01-03T10:42:06.385Z,4720.00
2023-01-03T10:43:06.351Z,4708.00
2023-01-03T10:44:06.349Z,4700.00
2023-01-03T10:45:06.320Z,4648.00
2023-01-03T10:46:06.353Z,4596.00
2023-01-03T10:47:06.290Z,4564.00
2023-01-03T10:48:06.279Z,4516.00
2023-01-03T10:50:06.288Z,4444.00
2023-01-03T10:51:06.246Z,4384.00
2023-01-03T10:52:06.225Z,4268.00
2023-01-03T10:53:06.232Z,4156.00
2023-01-03T10:54:06.199Z,3980.00
2023-01-03T10:55:06.189Z,3908.00
2023-01-03T10:56:06.187Z,3996.00
2023-01-03T10:57:06.164Z,4040.00
2023-01-03T10:58:06.171Z,4032.00
2023-01-03T10:59:06.135Z,3856.00
2023-01-03T11:00:06.130Z,3696.00
2023-01-03T11:01:06.264Z,3592.00
2023-01-03T11:02:06.422Z,3532.00
2023-01-03T11:03:06.324Z,3500.00
2023-01-03T11:04:06.075Z,3620.00
2023-01-03T11:05:06.072Z,3552.00
2023-01-03T11:06:06.054Z,3684.00
2023-01-03T11:07:06.046Z,4556.00
2023-01-03T11:08:06.018Z,4872.00
2023-01-03T11:09:06.028Z,3932.00
2023-01-03T11:10:05.994Z,3320.00
2023-01-03T11:11:05.973Z,3252.00
2023-01-03T11:12:05.971Z,3192.00
2023-01-03T11:13:05.960Z,3160.00
2023-01-03T11:14:05.973Z,3180.00
2023-01-03T11:15:05.961Z,3396.00
2023-01-03T11:16:05.905Z,3440.00
2023-01-03T11:17:06.102Z,3384.00
2023-01-03T11:18:05.901Z,3584.00
2023-01-03T11:19:05.881Z,3736.00
2023-01-03T11:20:05.859Z,3884.00
2023-01-03T11:21:05.851Z,3796.00
2023-01-03T11:22:05.835Z,3612.00
2023-01-03T11:23:05.820Z,3616.00
2023-01-03T11:24:05.807Z,4088.00
2023-01-03T11:25:05.791Z,3832.00
2023-01-03T11:26:05.801Z,3744.00
2023-01-03T11:27:05.784Z,3776.00
2023-01-03T11:28:09.182Z,3724.00
2023-01-03T11:29:06.755Z,3840.00
2023-01-03T11:30:05.769Z,3884.00
2023-01-03T11:31:05.702Z,3884.00
2023-01-03T11:32:05.871Z,3896.00
2023-01-03T11:33:05.715Z,3940.00
2023-01-03T11:34:05.665Z,3996.00
2023-01-03T11:35:23.977Z,4124.00
2023-01-03T11:36:06.669Z,4200.00
2023-01-03T11:37:05.626Z,4244.00
2023-01-03T11:38:05.610Z,4364.00
2023-01-03T11:39:11.010Z,4696.00
2023-01-03T11:40:06.637Z,5040.00
2023-01-03T11:41:05.569Z,4780.00
2023-01-03T11:42:05.552Z,4636.00
2023-01-03T11:43:05.541Z,4992.00
2023-01-03T11:44:05.536Z,5116.00
2023-01-03T11:45:05.521Z,5076.00
2023-01-03T11:46:05.587Z,5704.00
2023-01-03T11:47:05.493Z,6124.00
2023-01-03T11:48:05.475Z,5868.00
2023-01-03T11:49:05.462Z,6476.00
2023-01-03T11:50:05.445Z,5796.00
2023-01-03T11:51:05.436Z,7332.00
2023-01-03T11:52:05.435Z,9572.00
2023-01-03T11:53:05.416Z,11440.00
2023-01-03T11:54:05.513Z,12672.00
2023-01-03T11:55:05.381Z,13024.00
2023-01-03T11:56:05.368Z,12960.00
2023-01-03T11:57:05.359Z,12736.00
2023-01-03T11:58:05.347Z,11596.00
2023-01-03T11:59:05.332Z,12064.00
2023-01-03T12:00:05.320Z,10852.00
2023-01-03T12:01:05.452Z,10868.00
2023-01-03T12:02:05.427Z,11904.00
2023-01-03T12:03:05.440Z,11264.00
2023-01-03T12:04:05.358Z,11184.00
2023-01-03T12:05:05.246Z,13024.00
2023-01-03T12:06:05.232Z,12800.00
2023-01-03T12:07:45.319Z,11084.00
2023-01-03T12:08:06.233Z,12832.00
2023-01-03T12:09:05.193Z,10420.00
2023-01-03T12:10:05.181Z,7496.00
2023-01-03T12:11:05.176Z,8444.00
2023-01-03T12:12:05.157Z,7188.00
2023-01-03T12:13:05.149Z,11628.00
2023-01-03T12:14:05.135Z,11880.00
2023-01-03T12:15:05.122Z,13408.00
2023-01-03T12:16:05.183Z,13184.00
2023-01-03T12:17:05.088Z,12896.00
2023-01-03T12:18:05.144Z,12864.00
2023-01-03T12:19:11.771Z,12640.00
2023-01-03T12:20:06.071Z,12416.00
2023-01-03T12:21:05.040Z,12672.00
2023-01-03T12:22:05.032Z,12800.00
2023-01-03T12:23:05.013Z,12800.00
2023-01-03T12:24:05.003Z,12864.00
2023-01-03T12:25:05.916Z,12864.00
2023-01-03T12:26:04.973Z,12672.00
2023-01-03T12:27:04.964Z,12608.00
2023-01-03T12:28:04.944Z,12640.00
2023-01-03T12:29:04.947Z,12672.00
2023-01-03T12:30:04.934Z,12800.00
2023-01-03T12:31:05.017Z,13088.00
2023-01-03T12:32:04.891Z,13056.00
2023-01-03T12:33:04.878Z,12992.00
2023-01-03T12:34:04.889Z,12896.00
2023-01-03T12:35:04.852Z,12576.00
2023-01-03T12:36:04.836Z,12768.00
2023-01-03T12:37:04.828Z,12768.00
2023-01-03T12:38:04.812Z,13024.00
2023-01-03T12:39:04.805Z,13184.00
2023-01-03T12:40:04.792Z,13152.00
2023-01-03T12:41:04.780Z,13376.00
2023-01-03T12:42:04.762Z,13184.00
2023-01-03T12:43:04.753Z,12832.00
2023-01-03T12:44:04.733Z,12320.00
2023-01-03T12:45:04.720Z,11916.00
2023-01-03T12:46:12.048Z,11944.00